Time;durP1;ratioP1;P1;durP2;ratioP2;P2;SDS_P1;SDS_P2;PMS_P1;PMS_P2;Temp;Humidity;BMP_temperature;BMP_pressure;BME280_temperature;BME280_humidity;BME280_pressure;Samples;Min_cycle;Max_cycle;Signal;HPM_P1;HPM_P2
2023/07/27 00:00:59;;;;;;;0.85;0.63;;;22.40;57.20;;;;;;6294554;28;20055;-64
2023/07/27 00:04:00;;;;;;;0.43;0.40;;;22.40;57.20;;;;;;6294351;28;20032;-64
2023/07/27 00:07:00;;;;;;;0.50;0.50;;;22.40;57.20;;;;;;6294816;28;20039;-65
2023/07/27 00:10:01;;;;;;;0.45;0.45;;;22.40;57.30;;;;;;6294620;28;20683;-64
2023/07/27 00:13:02;;;;;;;0.88;0.60;;;22.40;57.30;;;;;;6294758;28;20493;-63
2023/07/27 00:16:02;;;;;;;1.15;0.60;;;22.40;57.30;;;;;;6294182;28;20082;-64
2023/07/27 00:19:03;;;;;;;0.63;0.57;;;22.40;57.30;;;;;;6294363;28;20439;-63
2023/07/27 00:22:04;;;;;;;0.47;0.47;;;22.40;57.30;;;;;;6294143;28;20031;-64
2023/07/27 00:25:05;;;;;;;1.10;0.60;;;22.40;57.30;;;;;;6293980;28;20070;-65
2023/07/27 00:28:06;;;;;;;1.08;0.75;;;22.40;57.30;;;;;;6293921;28;20021;-65
2023/07/27 00:31:07;;;;;;;0.98;0.63;;;22.40;57.40;;;;;;6294243;28;20035;-64
2023/07/27 00:34:08;;;;;;;0.50;0.50;;;22.40;57.40;;;;;;6293625;28;20044;-64
2023/07/27 00:37:08;;;;;;;0.57;0.50;;;22.40;57.40;;;;;;6293722;28;20032;-65
2023/07/27 00:40:09;;;;;;;0.70;0.60;;;22.40;57.50;;;;;;6293450;28;20034;-64
2023/07/27 00:43:10;;;;;;;0.45;0.40;;;22.40;57.50;;;;;;6293934;28;20024;-65
2023/07/27 00:46:11;;;;;;;0.40;0.40;;;22.40;57.50;;;;;;6293431;28;20020;-64
2023/07/27 00:49:12;;;;;;;0.43;0.40;;;22.40;57.50;;;;;;6293771;28;20122;-64
2023/07/27 00:52:13;;;;;;;0.50;0.40;;;22.40;57.60;;;;;;6293727;28;20051;-64
2023/07/27 00:55:14;;;;;;;0.75;0.65;;;22.40;57.60;;;;;;6293331;28;20071;-65
2023/07/27 00:58:14;;;;;;;0.43;0.43;;;22.40;57.60;;;;;;6293598;28;20024;-65
2023/07/27 01:01:16;;;;;;;0.50;0.50;;;22.40;57.60;;;;;;6293855;28;20013;-64
2023/07/27 01:04:17;;;;;;;0.40;0.40;;;22.40;57.60;;;;;;6293593;28;20385;-63
2023/07/27 01:07:18;;;;;;;0.50;0.45;;;22.40;57.60;;;;;;6292242;28;20025;-64
2023/07/27 01:10:25;;;;;;;1.08;0.60;;;22.40;57.70;;;;;;6292285;28;20366;-65
2023/07/27 01:14:03;;;;;;;0.45;0.40;;;22.40;57.70;;;;;;6293921;28;20107;-64
2023/07/27 01:17:10;;;;;;;0.40;0.40;;;22.40;57.70;;;;;;6281546;28;20040;-64
2023/07/27 01:20:36;;;;;;;0.50;0.50;;;22.40;57.70;;;;;;6293345;28;20029;-64
2023/07/27 01:23:58;;;;;;;0.40;0.40;;;22.40;57.80;;;;;;6293456;28;20460;-64
2023/07/27 01:27:19;;;;;;;0.40;0.40;;;22.40;57.80;;;;;;6293325;28;20028;-65
2023/07/27 01:30:52;;;;;;;0.43;0.40;;;22.40;57.80;;;;;;6288901;28;20039;-64
2023/07/27 01:34:05;;;;;;;1.52;0.43;;;22.30;57.70;;;;;;6287316;28;20428;-64
2023/07/27 01:37:08;;;;;;;0.95;0.60;;;22.40;57.80;;;;;;6293026;28;20032;-63
2023/07/27 01:40:11;;;;;;;0.85;0.50;;;22.30;57.80;;;;;;6292893;28;20385;-64
2023/07/27 01:43:12;;;;;;;0.50;0.50;;;22.40;57.80;;;;;;6293372;28;20023;-64
2023/07/27 01:46:14;;;;;;;0.60;0.50;;;22.40;57.80;;;;;;6292892;28;20512;-64
2023/07/27 01:49:16;;;;;;;0.68;0.50;;;22.30;57.80;;;;;;6293105;28;20044;-65
2023/07/27 01:52:18;;;;;;;0.43;0.43;;;22.30;57.80;;;;;;6292775;28;20482;-65
2023/07/27 01:55:22;;;;;;;0.52;0.50;;;22.40;57.90;;;;;;6292593;28;20033;-64
2023/07/27 01:58:26;;;;;;;0.50;0.40;;;22.30;57.80;;;;;;6292702;28;20035;-64
2023/07/27 02:01:28;;;;;;;0.50;0.50;;;22.30;57.80;;;;;;6292871;28;20020;-65
2023/07/27 02:04:30;;;;;;;0.68;0.50;;;22.40;57.90;;;;;;6292801;28;20020;-65
2023/07/27 02:07:35;;;;;;;0.82;0.60;;;22.40;57.90;;;;;;6295814;28;20525;-63
2023/07/27 02:10:39;;;;;;;0.40;0.40;;;22.30;57.80;;;;;;6297202;28;20485;-65
2023/07/27 02:13:49;;;;;;;0.70;0.60;;;22.30;57.80;;;;;;6297050;28;20020;-64
2023/07/27 02:17:01;;;;;;;0.40;0.40;;;22.30;57.90;;;;;;6296877;28;20701;-65
2023/07/27 02:20:06;;;;;;;0.60;0.50;;;22.30;57.90;;;;;;6296883;28;20056;-64
2023/07/27 02:23:08;;;;;;;1.05;0.50;;;22.40;58.00;;;;;;6297043;28;20021;-63
2023/07/27 02:26:09;;;;;;;0.40;0.40;;;22.40;58.00;;;;;;6296654;28;20081;-65
2023/07/27 02:29:09;;;;;;;0.40;0.40;;;22.30;57.90;;;;;;6296808;28;20035;-64
2023/07/27 02:32:10;;;;;;;0.30;0.30;;;22.30;57.90;;;;;;6296600;28;20025;-64
2023/07/27 02:35:11;;;;;;;0.50;0.40;;;22.40;58.10;;;;;;6296802;28;20053;-65
2023/07/27 02:38:11;;;;;;;0.20;0.20;;;22.30;57.90;;;;;;6295410;28;20071;-62
2023/07/27 02:41:12;;;;;;;0.30;0.30;;;22.30;58.00;;;;;;6296439;28;20058;-63
2023/07/27 02:44:13;;;;;;;0.60;0.50;;;22.30;58.00;;;;;;6296538;28;20048;-64
2023/07/27 02:47:14;;;;;;;0.40;0.40;;;22.30;58.00;;;;;;6296287;28;20469;-65
2023/07/27 02:50:14;;;;;;;0.60;0.55;;;22.30;58.00;;;;;;6296460;28;20029;-64
2023/07/27 02:53:15;;;;;;;0.82;0.38;;;22.30;58.00;;;;;;6296274;28;20069;-64
2023/07/27 02:56:16;;;;;;;0.70;0.30;;;22.30;57.90;;;;;;6296209;28;20048;-64
2023/07/27 02:59:16;;;;;;;0.50;0.40;;;22.30;57.90;;;;;;6296040;28;20035;-63
2023/07/27 03:02:17;;;;;;;0.60;0.50;;;22.40;58.00;;;;;;6295943;28;20017;-64
2023/07/27 03:05:18;;;;;;;0.40;0.40;;;22.30;57.90;;;;;;6295767;28;20506;-65
2023/07/27 03:08:18;;;;;;;0.40;0.40;;;22.30;58.00;;;;;;6296185;28;20044;-64
2023/07/27 03:11:19;;;;;;;0.40;0.40;;;22.30;58.00;;;;;;6295813;28;20112;-65
2023/07/27 03:14:20;;;;;;;0.63;0.40;;;22.30;58.00;;;;;;6295893;28;20431;-65
2023/07/27 03:17:20;;;;;;;0.20;0.20;;;22.40;58.10;;;;;;6295371;28;20052;-64
2023/07/27 03:20:21;;;;;;;1.20;0.40;;;22.30;58.20;;;;;;6295557;28;20040;-65
2023/07/27 03:23:22;;;;;;;0.50;0.45;;;22.40;58.30;;;;;;6293771;28;20047;-64
2023/07/27 03:26:22;;;;;;;0.65;0.40;;;22.40;58.90;;;;;;6295164;28;20473;-65
2023/07/27 03:29:23;;;;;;;0.38;0.32;;;22.40;58.20;;;;;;6295323;28;20107;-65
2023/07/27 03:32:24;;;;;;;0.60;0.50;;;22.40;58.20;;;;;;6294913;28;20024;-64
2023/07/27 03:35:24;;;;;;;0.47;0.40;;;22.40;58.30;;;;;;6295145;28;20381;-64
2023/07/27 03:38:25;;;;;;;0.45;0.38;;;22.40;58.40;;;;;;6295209;28;20106;-65
2023/07/27 03:41:26;;;;;;;0.28;0.28;;;22.40;58.40;;;;;;6294856;28;20513;-65
2023/07/27 03:44:26;;;;;;;0.95;0.57;;;22.40;58.30;;;;;;6295086;28;20024;-65
2023/07/27 03:47:27;;;;;;;1.15;0.50;;;22.40;58.40;;;;;;6294636;28;20059;-64
2023/07/27 03:50:28;;;;;;;0.63;0.45;;;22.40;58.30;;;;;;6294873;28;20055;-65
2023/07/27 03:53:29;;;;;;;0.75;0.50;;;22.30;58.20;;;;;;6294410;28;20392;-65
2023/07/27 03:56:30;;;;;;;0.40;0.30;;;22.30;58.30;;;;;;6294560;28;20021;-65
2023/07/27 04:03:27;;;;;;;0.50;0.40;;;22.30;58.20;;;;;;6294667;28;20017;-65
2023/07/27 04:06:29;;;;;;;0.40;0.40;;;22.30;58.20;;;;;;6294045;28;20031;-65
2023/07/27 04:09:30;;;;;;;0.80;0.50;;;22.30;58.20;;;;;;6294260;28;20025;-65
2023/07/27 04:12:30;;;;;;;1.02;0.40;;;22.30;58.20;;;;;;6294195;28;20035;-64
2023/07/27 04:15:31;;;;;;;0.70;0.40;;;22.30;58.20;;;;;;6294249;28;20024;-65
2023/07/27 04:18:32;;;;;;;1.52;0.60;;;22.30;58.20;;;;;;6294524;28;20619;-64
2023/07/27 04:21:32;;;;;;;1.63;0.52;;;22.30;58.20;;;;;;6294374;28;20070;-65
2023/07/27 04:24:33;;;;;;;1.23;0.40;;;22.40;58.30;;;;;;6293922;28;20016;-64
2023/07/27 04:27:34;;;;;;;0.40;0.40;;;22.30;59.00;;;;;;6293684;28;20154;-64
2023/07/27 04:30:35;;;;;;;0.50;0.40;;;22.30;58.20;;;;;;6293012;28;20051;-64
2023/07/27 04:33:35;;;;;;;1.88;0.60;;;22.30;58.20;;;;;;6292446;28;20083;-64
2023/07/27 04:36:36;;;;;;;0.85;0.52;;;22.30;58.20;;;;;;6293850;28;20345;-65
2023/07/27 04:39:37;;;;;;;0.52;0.50;;;22.30;58.20;;;;;;6294116;28;20027;-65
2023/07/27 04:42:37;;;;;;;1.00;0.60;;;22.30;58.20;;;;;;6293640;28;20455;-63
2023/07/27 04:45:38;;;;;;;0.68;0.40;;;22.30;58.20;;;;;;6293811;28;20023;-63
2023/07/27 04:48:38;;;;;;;0.40;0.40;;;22.30;58.20;;;;;;6294822;28;20029;-65
2023/07/27 04:51:39;;;;;;;0.40;0.40;;;22.30;58.20;;;;;;6294237;28;20029;-65
2023/07/27 04:54:40;;;;;;;1.15;0.47;;;22.30;58.30;;;;;;6293647;28;20460;-64
2023/07/27 04:57:40;;;;;;;0.65;0.50;;;22.30;58.30;;;;;;6293443;28;20090;-64
2023/07/27 05:00:41;;;;;;;1.08;0.50;;;22.30;58.30;;;;;;6293596;28;20037;-64
2023/07/27 05:03:42;;;;;;;0.68;0.40;;;22.30;58.30;;;;;;6294016;28;20020;-65
2023/07/27 05:06:43;;;;;;;0.60;0.50;;;22.30;58.30;;;;;;6288633;28;20101;-69
2023/07/27 05:09:43;;;;;;;0.82;0.50;;;22.30;59.10;;;;;;6289813;28;20504;-69
2023/07/27 05:12:44;;;;;;;0.30;0.30;;;22.30;58.40;;;;;;6292728;28;20029;-69
2023/07/27 05:15:46;;;;;;;1.50;0.98;;;22.30;58.50;;;;;;6292821;28;20017;-69
2023/07/27 05:18:46;;;;;;;0.75;0.50;;;22.30;57.20;;;;;;6291272;28;20029;-69
2023/07/27 05:21:47;;;;;;;1.77;0.70;;;22.30;58.10;;;;;;6284717;28;20028;-68
2023/07/27 05:24:48;;;;;;;2.17;0.70;;;22.30;58.20;;;;;;6292413;28;20028;-69
2023/07/27 05:27:48;;;;;;;1.77;1.10;;;22.30;57.90;;;;;;6291189;28;20646;-69
2023/07/27 05:30:49;;;;;;;2.40;1.42;;;22.30;57.40;;;;;;6292865;28;20028;-69
2023/07/27 05:33:50;;;;;;;1.02;0.80;;;22.30;56.80;;;;;;6292689;28;20374;-69
2023/07/27 05:36:51;;;;;;;1.55;1.10;;;22.30;56.80;;;;;;6288634;28;20037;-69
2023/07/27 05:39:52;;;;;;;1.60;1.30;;;22.30;56.00;;;;;;6293595;28;20031;-69
2023/07/27 05:42:52;;;;;;;4.53;1.67;;;22.30;56.40;;;;;;6296791;28;20032;-70
2023/07/27 05:45:53;;;;;;;3.10;1.60;;;22.30;56.20;;;;;;6297012;28;20051;-69
2023/07/27 05:48:54;;;;;;;2.38;1.55;;;22.30;55.80;;;;;;6295726;28;20109;-69
2023/07/27 05:51:54;;;;;;;5.97;1.80;;;22.30;56.30;;;;;;6297246;28;20032;-69
2023/07/27 05:54:55;;;;;;;3.70;1.75;;;22.30;56.30;;;;;;6295353;28;20542;-69
2023/07/27 05:57:56;;;;;;;2.25;1.40;;;22.30;56.50;;;;;;6295713;28;20082;-69
2023/07/27 06:01:03;;;;;;;2.30;1.40;;;22.30;56.40;;;;;;6281220;28;20060;-70
2023/07/27 06:04:04;;;;;;;5.72;1.48;;;22.30;56.30;;;;;;6275974;28;20032;-69
2023/07/27 06:07:05;;;;;;;2.33;1.73;;;22.30;56.10;;;;;;6298673;28;20025;-69
2023/07/27 06:10:06;;;;;;;4.15;1.77;;;22.30;56.10;;;;;;6297185;28;20024;-69
2023/07/27 06:13:07;;;;;;;2.40;1.80;;;22.20;56.00;;;;;;6297380;28;20036;-68
2023/07/27 06:16:07;;;;;;;3.45;2.15;;;22.30;55.60;;;;;;6298361;28;20025;-68
2023/07/27 06:19:08;;;;;;;3.40;1.98;;;22.30;55.70;;;;;;6297185;28;20082;-69
2023/07/27 06:22:09;;;;;;;2.95;1.80;;;22.30;55.50;;;;;;6298323;28;20036;-66
2023/07/27 06:25:10;;;;;;;4.72;2.13;;;22.30;55.70;;;;;;6297789;28;20097;-67
2023/07/27 06:28:11;;;;;;;5.65;2.17;;;22.30;55.30;;;;;;6298073;28;20603;-67
2023/07/27 06:31:12;;;;;;;3.83;2.13;;;22.30;55.50;;;;;;6298363;28;20035;-67
2023/07/27 06:34:12;;;;;;;2.58;1.55;;;22.30;55.80;;;;;;6298173;28;20053;-67
2023/07/27 06:37:13;;;;;;;3.05;1.92;;;22.30;55.80;;;;;;6298216;28;20016;-70
2023/07/27 06:40:13;;;;;;;5.50;1.90;;;22.30;55.80;;;;;;6297039;28;20061;-70
2023/07/27 06:43:14;;;;;;;4.68;1.98;;;22.30;55.80;;;;;;6297223;28;20024;-71
2023/07/27 06:46:15;;;;;;;3.95;1.88;;;22.30;55.70;;;;;;6296798;28;20013;-70
2023/07/27 06:49:16;;;;;;;4.20;1.52;;;22.30;56.30;;;;;;6298438;28;20021;-70
2023/07/27 06:52:16;;;;;;;8.90;2.25;;;22.30;56.10;;;;;;6296282;28;20473;-69
2023/07/27 06:55:17;;;;;;;3.78;2.25;;;22.30;55.80;;;;;;6297882;28;20028;-69
2023/07/27 06:58:18;;;;;;;2.38;1.67;;;22.30;55.70;;;;;;6297424;28;20020;-68
2023/07/27 07:01:18;;;;;;;3.80;2.10;;;22.30;55.60;;;;;;6296128;28;20025;-69
2023/07/27 07:04:19;;;;;;;7.88;2.53;;;22.30;55.50;;;;;;6271260;28;20477;-69
2023/07/27 07:07:20;;;;;;;2.85;2.05;;;22.30;55.50;;;;;;6293381;28;20052;-69
2023/07/27 07:10:21;;;;;;;3.20;2.22;;;22.30;55.50;;;;;;6297333;28;20036;-69
2023/07/27 07:13:23;;;;;;;3.05;2.00;;;22.20;55.30;;;;;;6296003;28;20050;-69
2023/07/27 07:16:24;;;;;;;3.33;2.22;;;22.30;55.30;;;;;;6295598;28;20028;-69
2023/07/27 07:19:24;;;;;;;6.60;2.50;;;22.30;55.30;;;;;;6296436;28;20025;-69
2023/07/27 07:22:25;;;;;;;7.05;2.20;;;22.30;56.00;;;;;;6296245;28;20021;-68
2023/07/27 07:25:26;;;;;;;2.42;1.73;;;22.30;55.30;;;;;;6297059;28;20484;-69
2023/07/27 07:28:27;;;;;;;5.80;2.67;;;22.30;55.20;;;;;;6295044;28;20110;-69
2023/07/27 07:31:27;;;;;;;5.13;2.25;;;22.20;55.20;;;;;;6296197;28;20500;-69
2023/07/27 07:34:28;;;;;;;3.22;1.88;;;22.20;55.10;;;;;;6289140;28;20055;-69
2023/07/27 07:37:29;;;;;;;4.30;2.10;;;22.30;55.30;;;;;;6293458;28;20025;-69
2023/07/27 07:40:29;;;;;;;3.55;1.80;;;22.20;55.20;;;;;;6294450;28;20123;-70
2023/07/27 07:43:32;;;;;;;4.00;1.90;;;22.20;55.20;;;;;;6296040;28;20095;-69
2023/07/27 07:46:33;;;;;;;3.83;2.20;;;22.20;55.20;;;;;;6296050;28;20025;-67
2023/07/27 07:49:34;;;;;;;8.48;2.17;;;22.20;54.90;;;;;;6296265;28;20074;-69
2023/07/27 07:52:35;;;;;;;2.78;1.85;;;22.20;55.20;;;;;;6295021;28;20099;-66
2023/07/27 07:55:36;;;;;;;3.72;1.92;;;22.20;55.40;;;;;;6291046;28;20054;-66
2023/07/27 07:58:37;;;;;;;5.55;2.50;;;22.20;55.40;;;;;;6293648;28;20025;-67
2023/07/27 08:01:38;;;;;;;5.60;2.53;;;22.20;55.50;;;;;;6291175;28;20489;-67
2023/07/27 08:04:38;;;;;;;5.80;2.38;;;22.20;54.80;;;;;;6268864;28;20025;-69
2023/07/27 08:07:39;;;;;;;5.18;2.42;;;22.20;55.20;;;;;;6283687;28;20104;-67
2023/07/27 08:10:40;;;;;;;4.05;2.13;;;22.30;55.30;;;;;;6293292;28;20166;-70
2023/07/27 08:13:40;;;;;;;5.40;2.08;;;22.20;55.70;;;;;;6294106;28;20500;-70
2023/07/27 08:16:41;;;;;;;6.35;2.28;;;22.20;55.80;;;;;;6283964;28;20025;-70
2023/07/27 08:19:41;;;;;;;4.85;2.17;;;22.20;55.70;;;;;;6294503;28;20573;-70
2023/07/27 08:22:42;;;;;;;2.75;1.95;;;22.20;55.80;;;;;;6292255;28;20024;-70
2023/07/27 08:25:43;;;;;;;3.80;2.38;;;22.20;55.80;;;;;;6292715;28;20063;-70
2023/07/27 08:28:43;;;;;;;4.32;2.42;;;22.20;55.10;;;;;;6294175;28;20024;-70
2023/07/27 08:31:44;;;;;;;4.93;2.00;;;22.20;55.80;;;;;;6292804;28;20060;-70
2023/07/27 08:34:45;;;;;;;6.65;2.35;;;22.20;55.90;;;;;;6293571;28;20044;-70
2023/07/27 08:37:45;;;;;;;3.33;2.00;;;22.20;55.80;;;;;;6293466;28;20562;-70
2023/07/27 08:40:54;;;;;;;3.25;2.00;;;22.20;55.80;;;;;;6292660;28;20032;-70
2023/07/27 08:43:55;;;;;;;4.00;2.10;;;22.20;55.90;;;;;;6292256;28;20062;-70
2023/07/27 08:47:00;;;;;;;5.10;2.50;;;22.20;55.90;;;;;;6293895;28;20512;-69
2023/07/27 08:50:02;;;;;;;3.45;2.08;;;22.20;55.90;;;;;;6293828;28;20056;-70
2023/07/27 08:53:03;;;;;;;3.42;2.20;;;22.20;56.00;;;;;;6292683;28;20040;-70
2023/07/27 08:56:04;;;;;;;2.88;1.98;;;22.20;55.80;;;;;;6294710;28;20587;-72
2023/07/27 08:59:05;;;;;;;6.38;2.60;;;22.20;55.90;;;;;;6292780;28;20119;-71
2023/07/27 09:02:06;;;;;;;2.85;1.90;;;22.20;55.80;;;;;;6287387;28;20039;-70
2023/07/27 09:05:09;;;;;;;4.20;1.98;;;22.20;56.00;;;;;;6292963;28;20029;-64
2023/07/27 09:08:12;;;;;;;2.85;1.80;;;22.20;56.50;;;;;;6268445;28;20017;-65
2023/07/27 09:11:12;;;;;;;5.22;2.10;;;22.20;56.70;;;;;;6293702;28;20032;-64
2023/07/27 09:14:16;;;;;;;3.47;1.95;;;22.30;57.10;;;;;;6294628;28;20036;-64
2023/07/27 09:17:17;;;;;;;2.90;1.98;;;22.30;57.00;;;;;;6299120;28;20021;-63
2023/07/27 09:20:18;;;;;;;4.82;1.83;;;22.30;57.10;;;;;;6298478;28;20021;-64
2023/07/27 09:23:20;;;;;;;3.30;1.67;;;22.30;57.30;;;;;;6297734;28;20089;-64
2023/07/27 09:26:25;;;;;;;1.77;1.25;;;22.30;57.30;;;;;;6299236;28;20052;-65
2023/07/27 09:29:25;;;;;;;2.17;1.58;;;22.30;57.40;;;;;;6298064;28;20157;-63
2023/07/27 09:32:34;;;;;;;2.22;1.60;;;22.40;57.50;;;;;;6298657;28;20473;-65
2023/07/27 09:35:36;;;;;;;2.70;1.60;;;22.40;57.40;;;;;;6297382;28;20103;-63
2023/07/27 09:38:38;;;;;;;3.97;2.08;;;22.30;57.10;;;;;;6297544;28;20501;-63
2023/07/27 09:41:43;;;;;;;2.92;1.67;;;22.30;57.20;;;;;;6297706;28;20111;-64
2023/07/27 09:44:52;;;;;;;2.22;1.55;;;22.30;57.30;;;;;;6297516;28;20432;-64
2023/07/27 09:47:53;;;;;;;2.67;1.65;;;22.30;57.40;;;;;;6297443;28;20016;-64
2023/07/27 09:50:54;;;;;;;3.08;1.60;;;22.30;57.70;;;;;;6296312;28;20369;-64
2023/07/27 09:53:56;;;;;;;2.95;1.55;;;22.30;57.80;;;;;;6297515;28;20099;-65
2023/07/27 09:56:57;;;;;;;3.90;1.83;;;22.30;57.70;;;;;;6297639;28;20021;-64
2023/07/27 09:59:58;;;;;;;2.53;1.63;;;22.30;57.50;;;;;;6296858;28;20032;-64
2023/07/27 10:02:59;;;;;;;2.15;1.40;;;22.30;57.70;;;;;;6297452;28;20021;-65
2023/07/27 10:06:00;;;;;;;2.03;1.40;;;22.30;57.60;;;;;;6297252;28;20024;-64
2023/07/27 10:09:01;;;;;;;2.70;1.52;;;22.30;57.60;;;;;;6297059;28;20079;-64
2023/07/27 10:12:04;;;;;;;2.22;1.40;;;22.30;57.60;;;;;;6296643;28;20029;-64
2023/07/27 10:15:24;;;;;;;1.80;1.50;;;22.30;57.90;;;;;;6297218;28;20020;-65
2023/07/27 10:18:27;;;;;;;1.95;1.23;;;22.30;57.80;;;;;;6297560;28;20020;-64
2023/07/27 10:21:28;;;;;;;3.55;1.60;;;22.30;57.80;;;;;;6292885;28;20029;-64
2023/07/27 10:24:45;;;;;;;3.75;1.77;;;22.30;57.80;;;;;;6295224;28;20055;-64
2023/07/27 10:27:56;;;;;;;2.03;1.67;;;22.20;57.70;;;;;;6296073;28;20027;-64
2023/07/27 10:31:27;;;;;;;2.78;1.80;;;22.30;57.80;;;;;;6297383;28;20028;-64
2023/07/27 10:34:29;;;;;;;2.22;1.52;;;22.20;57.70;;;;;;6296643;28;20051;-64
2023/07/27 10:37:50;;;;;;;2.00;1.45;;;22.20;57.70;;;;;;6297522;28;20516;-64
2023/07/27 10:40:53;;;;;;;2.38;1.55;;;22.20;57.80;;;;;;6287000;28;20537;-64
2023/07/27 10:44:08;;;;;;;2.08;1.42;;;22.20;57.80;;;;;;6297232;28;20093;-64
2023/07/27 10:47:10;;;;;;;2.47;1.52;;;22.20;57.80;;;;;;6272475;28;20017;-64
2023/07/27 10:50:13;;;;;;;1.85;1.50;;;22.20;58.00;;;;;;6278615;28;20024;-64
2023/07/27 10:53:14;;;;;;;1.40;1.27;;;22.20;58.00;;;;;;6295778;28;20081;-64
2023/07/27 10:56:16;;;;;;;2.72;1.58;;;22.20;58.00;;;;;;6296664;28;20027;-64
2023/07/27 10:59:16;;;;;;;1.75;1.23;;;22.20;57.90;;;;;;6296078;28;20016;-64
2023/07/27 11:02:22;;;;;;;1.60;1.33;;;22.20;57.90;;;;;;6296245;28;20021;-64
2023/07/27 11:05:23;;;;;;;1.75;1.40;;;22.20;58.00;;;;;;6294679;28;20034;-74
2023/07/27 11:08:27;;;;;;;2.00;1.40;;;22.20;58.00;;;;;;6296580;28;20024;-64
2023/07/27 11:11:28;;;;;;;1.50;1.10;;;22.20;58.00;;;;;;6296129;28;20448;-64
2023/07/27 11:14:28;;;;;;;1.45;1.20;;;22.20;58.10;;;;;;6272307;28;20032;-63
2023/07/27 11:17:33;;;;;;;2.47;1.70;;;22.20;58.20;;;;;;6296191;28;20036;-64
2023/07/27 11:20:35;;;;;;;1.92;1.48;;;22.20;58.20;;;;;;6296533;28;20079;-64
2023/07/27 11:23:47;;;;;;;1.90;1.30;;;22.20;58.20;;;;;;6296395;28;20684;-64
2023/07/27 11:26:48;;;;;;;1.70;1.10;;;22.20;58.20;;;;;;6296270;28;20020;-64
2023/07/27 11:29:50;;;;;;;1.60;1.25;;;22.20;58.90;;;;;;6296025;28;20039;-63
2023/07/27 11:32:55;;;;;;;1.30;1.20;;;22.20;58.20;;;;;;6296108;28;20064;-64
2023/07/27 11:35:56;;;;;;;;;;;22.20;58.30;;;;;;6296457;28;20024;-65
2023/07/27 11:38:58;;;;;;;1.65;1.17;;;22.20;58.30;;;;;;6294915;28;19905;-64
2023/07/27 11:42:09;;;;;;;1.33;1.23;;;22.20;58.30;;;;;;6295935;28;20029;-63
2023/07/27 11:45:11;;;;;;;2.47;1.60;;;22.20;58.30;;;;;;6295560;28;20020;-64
2023/07/27 11:48:13;;;;;;;1.42;1.20;;;22.20;58.20;;;;;;6295786;28;20044;-64
2023/07/27 11:51:14;;;;;;;1.55;1.30;;;22.20;58.30;;;;;;6295598;28;20021;-64
2023/07/27 11:54:23;;;;;;;1.20;1.08;;;22.20;58.30;;;;;;6296010;28;20434;-65
2023/07/27 11:57:25;;;;;;;1.60;1.20;;;22.20;58.40;;;;;;6295062;28;20086;-64
2023/07/27 12:00:26;;;;;;;1.80;1.10;;;22.10;58.30;;;;;;6295318;28;20399;-65
2023/07/27 12:03:27;;;;;;;1.25;1.00;;;22.20;58.40;;;;;;6294047;28;20028;-65
2023/07/27 12:06:29;;;;;;;1.42;1.13;;;22.20;58.40;;;;;;6295597;28;20512;-64
2023/07/27 12:09:36;;;;;;;1.30;1.05;;;22.20;58.40;;;;;;6295051;28;20020;-64
2023/07/27 12:12:47;;;;;;;1.48;1.27;;;22.20;58.50;;;;;;6295390;28;20354;-64
2023/07/27 12:15:59;;;;;;;2.55;1.30;;;22.20;58.40;;;;;;6295073;28;20034;-65
2023/07/27 12:19:00;;;;;;;1.00;0.90;;;22.20;58.40;;;;;;6295019;28;20416;-65
2023/07/27 12:22:01;;;;;;;1.80;1.40;;;22.20;58.50;;;;;;6295225;28;20032;-64
2023/07/27 12:25:02;;;;;;;1.15;1.00;;;22.20;58.50;;;;;;6294748;28;20028;-65
2023/07/27 12:28:03;;;;;;;1.48;1.17;;;22.20;59.20;;;;;;6295211;28;20031;-63
2023/07/27 12:31:04;;;;;;;1.40;1.13;;;22.20;58.50;;;;;;6294975;28;20487;-64
2023/07/27 12:34:05;;;;;;;1.38;1.13;;;22.20;58.50;;;;;;6295069;28;20097;-64
2023/07/27 12:37:08;;;;;;;1.55;1.25;;;22.20;58.60;;;;;;6294658;28;20089;-64
2023/07/27 12:40:10;;;;;;;0.90;0.80;;;22.20;58.60;;;;;;6294600;28;20021;-65
2023/07/27 12:43:11;;;;;;;1.27;0.90;;;22.20;58.70;;;;;;6294840;28;20035;-64
2023/07/27 12:46:13;;;;;;;1.48;0.85;;;22.20;58.60;;;;;;6294821;28;20584;-63
2023/07/27 12:49:13;;;;;;;2.00;1.33;;;22.20;58.60;;;;;;6293638;28;20124;-63
2023/07/27 12:52:14;;;;;;;1.52;1.20;;;22.20;58.60;;;;;;6295102;28;20089;-64
2023/07/27 12:55:16;;;;;;;1.63;1.10;;;22.10;58.60;;;;;;6295066;28;20416;-64
2023/07/27 12:58:17;;;;;;;3.17;1.20;;;22.20;58.70;;;;;;6292846;28;20020;-64
2023/07/27 13:01:18;;;;;;;1.80;1.30;;;22.20;58.70;;;;;;6294610;28;20479;-64
2023/07/27 13:04:18;;;;;;;1.60;1.10;;;22.10;58.60;;;;;;6269675;28;20032;-62
2023/07/27 13:07:19;;;;;;;1.63;1.10;;;22.20;58.70;;;;;;6278198;28;20024;-64
2023/07/27 13:10:20;;;;;;;1.70;1.23;;;22.20;58.70;;;;;;6294190;28;20069;-62
2023/07/27 13:13:21;;;;;;;2.10;1.00;;;22.10;58.60;;;;;;6294617;28;20027;-63
2023/07/27 13:16:21;;;;;;;1.20;1.10;;;22.10;58.70;;;;;;6294308;28;20048;-63
2023/07/27 13:19:22;;;;;;;1.70;1.00;;;22.20;58.70;;;;;;6294110;28;20437;-63
2023/07/27 13:22:24;;;;;;;2.50;1.20;;;22.10;58.60;;;;;;6293817;28;20025;-64
2023/07/27 13:25:24;;;;;;;2.05;1.20;;;22.10;58.70;;;;;;6294063;28;20024;-63
2023/07/27 13:28:25;;;;;;;1.20;1.00;;;22.10;59.50;;;;;;6293839;28;20100;-64
2023/07/27 13:31:26;;;;;;;1.13;0.82;;;22.20;58.90;;;;;;6294248;28;20485;-64
2023/07/27 13:34:28;;;;;;;1.50;1.00;;;22.10;58.90;;;;;;6294030;28;20048;-63
2023/07/27 13:37:31;;;;;;;1.30;0.80;;;22.10;58.90;;;;;;6292531;28;20115;-63
2023/07/27 13:40:32;;;;;;;1.50;1.10;;;22.10;59.00;;;;;;6293884;28;20112;-64
2023/07/27 13:43:33;;;;;;;1.73;1.10;;;22.10;58.90;;;;;;6293943;28;20029;-65
2023/07/27 13:46:34;;;;;;;2.28;1.02;;;22.10;58.90;;;;;;6292694;28;20131;-63
2023/07/27 13:49:34;;;;;;;1.30;1.00;;;22.10;58.90;;;;;;6293704;28;20380;-63
2023/07/27 13:52:35;;;;;;;1.55;1.00;;;22.10;58.90;;;;;;6293933;28;20696;-63
2023/07/27 13:55:36;;;;;;;1.35;1.02;;;22.10;58.90;;;;;;6294202;28;20485;-63
2023/07/27 13:58:37;;;;;;;1.65;0.93;;;22.10;58.90;;;;;;6293377;28;20496;-64
2023/07/27 14:01:37;;;;;;;1.42;1.10;;;22.10;58.90;;;;;;6294678;28;20027;-65
2023/07/27 14:04:38;;;;;;;1.70;1.20;;;22.10;58.90;;;;;;6291339;28;20078;-65
2023/07/27 14:07:39;;;;;;;1.33;0.90;;;22.10;58.90;;;;;;6297839;28;20070;-63
2023/07/27 14:10:40;;;;;;;1.55;1.20;;;22.10;58.90;;;;;;6298151;28;20029;-63
2023/07/27 14:13:40;;;;;;;1.50;1.02;;;22.10;58.90;;;;;;6298055;28;20027;-65
2023/07/27 14:16:41;;;;;;;1.40;1.00;;;22.10;58.90;;;;;;6298091;28;20029;-63
2023/07/27 14:19:43;;;;;;;1.05;0.88;;;22.10;58.90;;;;;;6297713;28;20051;-63
2023/07/27 14:22:44;;;;;;;1.13;0.85;;;22.10;59.00;;;;;;6297839;28;20021;-64
2023/07/27 14:25:45;;;;;;;1.77;1.02;;;22.10;59.00;;;;;;6278609;28;20405;-64
2023/07/27 14:28:46;;;;;;;2.10;1.02;;;22.10;59.00;;;;;;6297439;28;20103;-65
2023/07/27 14:31:47;;;;;;;1.15;0.90;;;22.10;59.00;;;;;;6297808;28;20030;-64
2023/07/27 14:34:47;;;;;;;1.52;1.00;;;22.10;59.00;;;;;;6297417;28;20681;-63
2023/07/27 14:37:48;;;;;;;1.85;0.90;;;22.10;59.00;;;;;;6297105;28;20025;-64
2023/07/27 14:40:49;;;;;;;1.38;0.90;;;22.10;59.00;;;;;;6297085;28;20047;-64
2023/07/27 14:43:52;;;;;;;1.65;1.00;;;22.10;59.00;;;;;;6296975;28;20031;-63
2023/07/27 14:46:53;;;;;;;1.42;1.02;;;22.10;59.00;;;;;;6297260;28;20070;-63
2023/07/27 14:49:53;;;;;;;2.00;1.08;;;22.10;59.00;;;;;;6296612;28;20033;-63
2023/07/27 14:52:54;;;;;;;0.93;0.80;;;22.10;59.00;;;;;;6295995;28;20037;-64
2023/07/27 14:55:55;;;;;;;1.48;0.88;;;22.10;59.00;;;;;;6296903;28;20024;-64
2023/07/27 14:58:55;;;;;;;1.50;0.90;;;22.10;59.10;;;;;;6296474;28;20078;-64
2023/07/27 15:01:56;;;;;;;0.90;0.80;;;22.10;59.00;;;;;;6292430;28;20028;-64
2023/07/27 15:04:57;;;;;;;1.52;1.00;;;22.10;59.00;;;;;;6295304;28;20441;-64
2023/07/27 15:07:59;;;;;;;3.17;1.30;;;22.10;59.10;;;;;;6296509;28;20031;-64
2023/07/27 15:10:59;;;;;;;1.08;0.88;;;22.10;59.10;;;;;;6296524;28;20027;-63
2023/07/27 15:14:00;;;;;;;1.73;0.82;;;22.10;59.00;;;;;;6294765;28;20024;-63
2023/07/27 15:17:01;;;;;;;1.25;0.80;;;22.10;59.10;;;;;;6296775;28;20028;-63
2023/07/27 15:20:02;;;;;;;1.15;0.90;;;22.10;59.10;;;;;;6296331;28;20029;-64
2023/07/27 15:23:03;;;;;;;1.05;0.85;;;22.10;59.10;;;;;;6296768;28;20473;-64
2023/07/27 15:26:07;;;;;;;2.25;0.95;;;22.10;59.10;;;;;;6295749;28;20066;-64
2023/07/27 15:29:08;;;;;;;1.35;1.02;;;22.10;59.10;;;;;;6295894;28;20485;-64
2023/07/27 15:32:11;;;;;;;1.33;0.90;;;22.10;59.10;;;;;;6296234;28;20146;-64
2023/07/27 15:35:12;;;;;;;2.97;1.30;;;22.10;59.10;;;;;;6296090;28;20040;-64
2023/07/27 15:38:14;;;;;;;0.85;0.70;;;22.10;59.10;;;;;;6295623;28;20032;-64
2023/07/27 15:41:15;;;;;;;0.80;0.80;;;22.10;59.20;;;;;;6296093;28;20496;-64
2023/07/27 15:44:16;;;;;;;1.25;0.70;;;22.10;59.10;;;;;;6295487;28;20038;-64
2023/07/27 15:47:17;;;;;;;0.80;0.70;;;22.10;59.10;;;;;;6291020;28;20103;-63
2023/07/27 15:50:17;;;;;;;1.33;0.85;;;22.10;59.20;;;;;;6295094;28;20052;-64
2023/07/27 15:53:18;;;;;;;1.33;0.85;;;22.10;59.20;;;;;;6295667;28;20523;-64